• Join FlightAware (Why Join?)
  • Login
  • US Flag 
02:07AM EDT


 

Airport Tracker/Info


-or-


 

Live Flight TrackerFlight Track Log ✈ SWA896 ✈ 28-Apr-2013 ✈ KBUF - KLAS

Flight Track Log - Related Links

Times and Time Zones

All times are in EDT time to prevent confusion due to time zone crossing. See the SWA896 flight status page for this flight to view local times or setup timezone preferences in your user account.

Time Position Orientation Groundspeed Altitude Reporting Facility
EDT Latitude Longitude Course Direction KTS MPH feet Rate Location/Type
08:25AM 42.9167 -78.7500 236° Southwest 177 204 2,000  Level Buffalo TRACON
08:25AM 42.9000 -78.7833 236° Southwest 184 212 3,300 2,100 Climbing Buffalo TRACON
08:27AM 42.8158 -78.8311 203° Southwest 257 296 6,200 2,460 Climbing Cleveland Center
08:28AM 42.7517 -78.8614 199° South 269 310 9,000 2,340 Climbing Cleveland Center
08:29AM 42.6814 -78.8942 199° South 269 310 10,900 1,740 Climbing Cleveland Center
08:30AM 42.5903 -78.9333 198° South 298 343 12,500 1,980 Climbing Cleveland Center
08:31AM 42.4928 -78.9781 199° South 341 392 14,900 2,520 Climbing Cleveland Center
08:32AM 42.3811 -79.0289 199° South 379 436 17,600 2,160 Climbing Cleveland Center
08:33AM 42.2775 -79.0819 201° Southwest 391 450 19,300 1,680 Climbing Cleveland Center
08:34AM 42.1931 -79.1706 218° Southwest 379 436 21,000 1,800 Climbing Cleveland Center
08:35AM 42.1825 -79.3306 265° West 370 426 22,900 1,740 Climbing Cleveland Center
08:36AM 42.1800 -79.4933 269° West 400 460 24,500 1,560 Climbing Cleveland Center
08:37AM 42.1792 -79.6531 270° West 420 483 26,100 1,500 Climbing Cleveland Center
08:38AM 42.1783 -79.8156 270° West 434 499 27,500 1,500 Climbing Cleveland Center
08:39AM 42.1731 -79.9781 268° West 439 505 29,200 1,560 Climbing Cleveland Center
08:40AM 42.1697 -80.1350 268° West 434 499 30,700 1,380 Climbing Cleveland Center
08:41AM 42.1681 -80.2892 269° West 416 479 32,000 1,200 Climbing Cleveland Center
08:42AM 42.1642 -80.4375 268° West 416 479 33,200 960 Climbing Cleveland Center
08:43AM 42.1600 -80.5886 268° West 410 472 34,000 360 Climbing Cleveland Center
08:44AM 42.1578 -80.7372 269° West 400 460 34,000  Level Cleveland Center
08:45AM 42.1533 -80.8856 268° West 406 467 34,000  Level Cleveland Center
08:46AM 42.1508 -81.0342 269° West 400 460 34,000  Level Cleveland Center
08:47AM 42.1439 -81.1853 267° West 405 466 34,000  Level Cleveland Center
08:48AM 42.1389 -81.3194 267° West 405 466 34,000  Level Cleveland Center
08:49AM 42.1358 -81.4764 269° West 405 466 34,000  Level Cleveland Center
08:50AM 42.1303 -81.6275 267° West 405 466 34,000  Level Cleveland Center
08:51AM 42.1247 -81.7758 267° West 405 466 34,000  Level Cleveland Center
08:52AM 42.1189 -81.9269 267° West 405 466 34,000  Level Cleveland Center
08:53AM 42.1150 -82.0722 268° West 405 466 34,000  Level Cleveland Center
08:54AM 42.1086 -82.2372 267° West 405 466 34,000  Level Cleveland Center
08:55AM 42.0939 -82.3853 262° West 405 466 34,000  Level Cleveland Center
08:56AM 42.0978 -82.5281 272° West 400 460 34,000  Level Cleveland Center
08:57AM 42.0931 -82.6789 268° West 400 460 34,000  Level Cleveland Center
08:58AM 42.0819 -82.8214 264° West 400 460 34,000  Level Cleveland Center
08:59AM 42.0767 -82.9750 267° West 400 460 34,000  Level Cleveland Center
09:00AM 42.0672 -83.1228 265° West 406 467 34,000  Level Cleveland Center
09:01AM 42.0617 -83.2794 267° West 406 467 34,000  Level Cleveland Center
09:02AM 42.0539 -83.4300 266° West 406 467 34,000  Level Cleveland Center
09:03AM 42.0458 -83.5836 266° West 406 467 34,000  Level Cleveland Center
09:04AM 42.0397 -83.7369 267° West 411 473 34,000  Level Cleveland Center
09:05AM 42.0311 -83.8931 266° West 418 481 34,000  Level Cleveland Center
09:07AM 42.0150 -84.2317 266° West 424 488 34,000  Level Chicago Center
09:08AM 42.0058 -84.3900 266° West 426 490 34,000  Level Chicago Center
09:09AM 41.9964 -84.5492 265° West 427 491 34,000 300 Level Chicago Center
09:10AM 41.9869 -84.7094 266° West 429 494 34,700 780 Climbing Chicago Center
09:11AM 41.9783 -84.8597 266° West 427 491 35,700 600 Climbing Chicago Center
09:12AM 41.9686 -85.0156 265° West 423 487 36,000 120 Climbing Chicago Center
09:13AM 41.9572 -85.2031 265° West 425 489 36,000  Level Chicago Center
09:14AM 41.9469 -85.3581 265° West 423 487 36,000  Level Chicago Center
09:15AM 41.9358 -85.5139 265° West 425 489 36,000  Level Chicago Center
09:16AM 41.9250 -85.6703 265° West 425 489 36,000  Level Chicago Center
09:17AM 41.9142 -85.8269 265° West 426 490 36,000  Level Chicago Center
09:18AM 41.9006 -86.0169 265° West 429 494 36,000  Level Chicago Center
09:19AM 41.8886 -86.1750 264° West 430 495 36,000  Level Chicago Center
09:20AM 41.8767 -86.3353 264° West 432 497 36,000  Level Chicago Center
09:21AM 41.8650 -86.4961 264° West 435 501 36,000  Level Chicago Center
09:22AM 41.8525 -86.6572 264° West 437 503 36,000  Level Chicago Center
09:23AM 41.8394 -86.8456 265° West 434 499 36,000  Level Chicago Center
09:24AM 41.8272 -87.0083 264° West 438 504 36,000  Level Chicago Center
09:26AM 41.8092 -87.2013 263° West  Level FlightAware Approximate
09:26AM 41.7986 -87.3367 263° West 447 514 36,000  Level Chicago Center
09:27AM 41.7833 -87.5028 263° West 452 520 36,000  Level Chicago Center
09:28AM 41.7697 -87.6683 264° West 452 520 36,000  Level Chicago Center
09:29AM 41.7517 -87.8644 263° West 447 514 36,000  Level Chicago Center
09:30AM 41.7381 -88.0261 264° West 445 512 36,000  Level Chicago Center
09:31AM 41.7233 -88.1881 263° West 446 513 36,000  Level Chicago Center
09:33AM 41.7078 -88.3503 263° West 446 513 36,000  Level Chicago Center
09:34AM 41.6931 -88.5125 263° West 446 513 36,000  Level Chicago Center
09:35AM 41.6744 -88.7067 263° West 443 510 36,000  Level Chicago Center
09:36AM 41.6594 -88.8692 263° West 444 511 36,000  Level Chicago Center
09:37AM 41.6428 -89.0272 262° West 436 502 36,000  Level Chicago Center
09:38AM 41.6275 -89.1881 263° West 437 503 36,000  Level Chicago Center
09:39AM 41.6119 -89.3467 263° West 435 501 36,000  Level Chicago Center
09:40AM 41.5958 -89.5061 262° West 436 502 36,000  Level Chicago Center
09:41AM 41.5769 -89.6825 262° West 434 499 36,000  Level Chicago Center
09:42AM 41.5608 -89.8389 262° West 430 495 36,000  Level Chicago Center
09:43AM 41.5439 -89.9975 262° West 432 497 36,000  Level Chicago Center
09:44AM 41.5275 -90.1553 262° West 432 497 36,000  Level Chicago Center
09:45AM 41.5075 -90.3453 262° West 433 498 36,000  Level Chicago Center
09:46AM 41.4892 -90.5050 261° West 436 502 36,000  Level Chicago Center
09:47AM 41.4700 -90.6708 261° West 458 527 36,000  Level Chicago Center
09:48AM 41.4517 -90.8317 261° West 445 512 36,000  Level Chicago Center
09:49AM 41.4322 -90.9922 261° West 442 509 36,000  Level Chicago Center
09:50AM 41.4142 -91.1539 262° West 442 509 36,000  Level Chicago Center
09:51AM 41.3931 -91.3256 261° West 444 511 36,000  Level Chicago Center
09:52AM 41.3736 -91.4858 261° West 442 509 36,000  Level Chicago Center
09:53AM 41.3550 -91.6467 261° West 442 509 36,000  Level Chicago Center
09:54AM 41.3314 -91.8369 261° West 437 503 36,000  Level Chicago Center
09:55AM 41.3114 -91.9969 261° West 441 507 36,000  Level Chicago Center
09:56AM 41.2911 -92.1550 260° West 438 504 36,000  Level Chicago Center
09:57AM 41.2711 -92.3131 260° West 438 504 36,000  Level Chicago Center
09:58AM 41.2503 -92.4775 260° West 441 507 36,000  Level Chicago Center
09:59AM 41.2242 -92.6689 260° West 441 507 36,000  Level Minneapolis Center
10:00AM 41.2033 -92.8292 260° West 443 510 36,000  Level Minneapolis Center
10:01AM 41.1822 -92.9903 260° West 446 513 36,000  Level Minneapolis Center
10:02AM 41.1603 -93.1506 260° West 447 514 36,000  Level Minneapolis Center
10:03AM 41.1378 -93.3078 259° West 444 511 36,000  Level Minneapolis Center
10:04AM 41.1175 -93.4631 260° West 440 506 36,000  Level Minneapolis Center
10:05AM 41.0964 -93.6172 260° West 434 499 36,000  Level Minneapolis Center
10:06AM 41.0747 -93.7747 260° West 437 503 36,000  Level Minneapolis Center
10:07AM 41.0489 -93.9597 260° West 433 498 36,000  Level Minneapolis Center
10:08AM 41.0244 -94.1150 258° West 434 499 36,000  Level Minneapolis Center
10:09AM 41.0017 -94.2689 259° West 432 497 36,000  Level Minneapolis Center
10:10AM 40.9803 -94.4228 260° West 430 495 36,000  Level Minneapolis Center
10:12AM 40.9542 -94.5911 258° West 431 496 36,000  Level Minneapolis Center
10:13AM 40.9294 -94.7483 258° West 435 501 36,000  Level Minneapolis Center
10:14AM 40.9067 -94.9053 259° West 435 501 36,000  Level Minneapolis Center
10:15AM 40.8819 -95.0608 258° West 433 498 36,000  Level Minneapolis Center
10:16AM 40.8581 -95.2164 259° West 431 496 36,000  Level Minneapolis Center
10:17AM 40.8342 -95.3714 259° West 430 495 36,000  Level Minneapolis Center
10:18AM 40.8097 -95.5272 258° West 431 496 36,000  Level Minneapolis Center
10:19AM 40.7847 -95.6836 258° West 431 496 36,000  Level Minneapolis Center
10:20AM 40.7597 -95.8389 258° West 431 496 36,000  Level Minneapolis Center
10:21AM 40.7350 -95.9958 258° West 433 498 36,000  Level Minneapolis Center
10:22AM 40.7083 -96.1519 257° West 434 499 36,000  Level Minneapolis Center
10:23AM 40.6783 -96.3408 258° West 436 502 36,000  Level Minneapolis Center
10:24AM 40.6519 -96.4975 258° West 435 501 36,000  Level Minneapolis Center
10:25AM 40.6250 -96.6522 257° West 434 499 36,000  Level Minneapolis Center
10:26AM 40.5986 -96.8081 257° West 434 499 36,000  Level Minneapolis Center
10:27AM 40.5722 -96.9636 257° West 435 501 36,000  Level Minneapolis Center
10:28AM 40.5458 -97.1183 257° West 434 499 36,000  Level Minneapolis Center
10:29AM 40.5194 -97.2728 257° West 432 497 36,000  Level Minneapolis Center
10:30AM 40.4914 -97.4311 257° West 436 502 36,000  Level Minneapolis Center
10:31AM 40.4647 -97.5864 257° West 435 501 36,000  Level Minneapolis Center
10:32AM 40.4361 -97.7419 256° West 437 503 36,000  Level Minneapolis Center
10:33AM 40.4086 -97.8975 257° West 436 502 36,000  Level Minneapolis Center
10:34AM 40.3733 -98.0844 256° West 438 504 36,000  Level Minneapolis Center
10:35AM 40.3461 -98.2403 257° West 437 503 36,000  Level Minneapolis Center
10:36AM 40.3172 -98.3947 256° West 434 499 36,000  Level Minneapolis Center
10:37AM 40.2886 -98.5506 257° West 437 503 36,000  Level Minneapolis Center
10:38AM 40.2592 -98.7064 256° West 438 504 36,000  Level Minneapolis Center
10:39AM 40.2300 -98.8625 256° West 439 505 36,000  Level Minneapolis Center
10:40AM 40.1992 -99.0189 256° West 441 507 36,000  Level Minneapolis Center
10:41AM 40.1692 -99.1756 256° West 442 509 36,000  Level Minneapolis Center
10:42AM 40.1397 -99.3328 256° West 443 510 36,000  Level Minneapolis Center
10:43AM 40.1019 -99.5197 255° West 443 510 36,000  Level Minneapolis Center
10:44AM 40.0725 -99.6775 256° West 444 511 36,000  Level Minneapolis Center
10:45AM 40.0414 -99.8342 256° West 445 512 36,000  Level Minneapolis Center
10:46AM 40.0086 -99.9897 255° West 445 512 36,000  Level Minneapolis Center
10:47AM 39.9789 -100.1481 256° West 446 513 36,000  Level Minneapolis Center
10:48AM 39.9467 -100.3047 255° West 447 514 36,000  Level Minneapolis Center
10:50AM 39.9050 -100.5008 255° West 441 507 36,000  Level Denver Center
10:51AM 39.8747 -100.6497 255° West 444 511 36,000  Level Denver Center
10:52AM 39.8381 -100.8214 255° West 441 507 36,000  Level Denver Center
10:53AM 39.8081 -100.9675 255° West 439 505 36,000  Level Denver Center
10:54AM 39.7711 -101.1378 254° West 439 505 36,000  Level Denver Center
10:55AM 39.7403 -101.2858 255° West 441 507 36,000  Level Denver Center
10:56AM 39.7136 -101.4103 254° West 446 513 36,000  Level Denver Center
10:57AM 39.6714 -101.6083 255° West 446 513 36,000  Level Denver Center
10:58AM 39.6328 -101.7803 254° West 445 512 36,000  Level Denver Center
10:59AM 39.6006 -101.9292 254° West 448 516 36,000  Level Denver Center
11:00AM 39.5683 -102.0775 254° West 446 513 36,000  Level Denver Center
11:01AM 39.5311 -102.2494 254° West 445 512 36,000  Level Denver Center
11:02AM 39.4972 -102.3928 253° West 443 510 36,000  Level Denver Center
11:03AM 39.4572 -102.5731 254° West 443 510 36,000  Level Denver Center
11:04AM 39.4222 -102.7267 254° West 442 509 36,000  Level Denver Center
11:05AM 39.3861 -102.8825 253° West 448 516 36,000  Level Denver Center
11:06AM 39.3508 -103.0364 254° West 444 511 36,000  Level Denver Center
11:07AM 39.3150 -103.1911 253° West 446 513 36,000  Level Denver Center
11:08AM 39.2800 -103.3456 254° West 444 511 36,000  Level Denver Center
11:09AM 39.2433 -103.4986 253° West 442 509 36,000  Level Denver Center
11:10AM 39.2069 -103.6514 253° West 442 509 36,000  Level Denver Center
11:11AM 39.1711 -103.8028 253° West 440 506 36,000  Level Denver Center
11:12AM 39.1283 -103.9786 253° West 433 498 36,000  Level Denver Center
11:13AM 39.0914 -104.1300 253° West 437 503 36,000  Level Denver Center
11:14AM 39.0544 -104.2819 253° West 439 505 36,000  Level Denver Center
11:15AM 39.0169 -104.4331 252° West 439 505 36,000  Level Denver Center
11:16AM 38.9803 -104.5858 253° West 441 507 36,000  Level Denver Center
11:18AM 38.9425 -104.7372 252° West 440 506 36,000  Level Denver Center
11:19AM 38.9053 -104.8883 252° West 437 503 36,000  Level Denver Center
11:20AM 38.8661 -105.0428 252° West 446 513 36,000  Level Denver Center
11:21AM 38.8275 -105.1958 252° West 448 516 36,000  Level Denver Center
11:22AM 38.7836 -105.3717 252° West 440 506 36,000  Level Denver Center
11:23AM 38.7439 -105.5214 251° West 439 505 36,000  Level Denver Center
11:24AM 38.7061 -105.6725 252° West 440 506 36,000  Level Denver Center
11:25AM 38.6672 -105.8236 252° West 444 511 36,000  Level Denver Center
11:26AM 38.6275 -105.9739 251° West 444 511 36,000  Level Denver Center
11:27AM 38.5839 -106.1364 251° West 441 507 36,000  Level Denver Center
11:28AM 38.5453 -106.2875 252° West 439 505 36,000  Level Denver Center
11:29AM 38.5047 -106.4381 251° West 443 510 36,000  Level Denver Center
11:30AM 38.4731 -106.5575 251° West 442 509 36,000  Level Denver Center
11:31AM 38.4247 -106.7358 251° West 440 506 36,000  Level Denver Center
11:32AM 38.3842 -106.8850 251° West 441 507 36,000  Level Denver Center
11:33AM 38.3436 -107.0344 251° West 443 510 36,000  Level Denver Center
11:34AM 38.3117 -107.1511 251° West 438 504 36,000  Level Denver Center
11:35AM 38.2694 -107.3064 251° West 443 510 36,000  Level Denver Center
11:36AM 38.2211 -107.4956 252° West 441 507 36,000  Level Denver Center
11:37AM 38.1853 -107.6650 255° West 444 511 36,000  Level Denver Center
11:38AM 38.1539 -107.8097 255° West 443 510 36,000  Level Denver Center
11:39AM 38.1153 -107.9797 254° West 447 514 36,000  Level Denver Center
11:40AM 38.0831 -108.1256 254° West 448 516 36,000  Level Denver Center
11:41AM 38.0497 -108.2767 254° West 445 512 36,000  Level Denver Center
11:42AM 38.0064 -108.4694 254° West 446 513 36,000  Level Denver Center
11:44AM 37.9739 -108.6111 254° West 441 507 36,000  Level Denver Center
11:45AM 37.9367 -108.7769 254° West 440 506 36,000  Level Denver Center
11:46AM 37.9036 -108.9158 253° West 434 499 36,000  Level Denver Center
11:47AM 37.8647 -109.0817 254° West 439 505 36,000 -180 Level Denver Center
11:48AM 37.8325 -109.2236 254° West 440 506 35,700 -720 Descending Denver Center
11:49AM 37.7928 -109.3897 253° West 442 509 34,600 -840 Descending Denver Center
11:50AM 37.7597 -109.5294 253° West 436 502 34,000 -300 Descending Denver Center
11:51AM 37.7214 -109.6936 254° West 438 504 34,000  Level Denver Center
11:52AM 37.6872 -109.8367 253° West 443 510 34,000  Level Denver Center
11:53AM 37.6458 -110.0031 253° West 446 513 34,000  Level Denver Center
11:54AM 37.6119 -110.1469 253° West 448 516 34,000  Level Denver Center
11:55AM 37.5722 -110.3119 253° West 444 511 34,000  Level Denver Center
11:56AM 37.5369 -110.4544 253° West 445 512 34,000  Level Denver Center
11:57AM 37.5014 -110.5992 253° West 442 509 34,000  Level Denver Center
11:58AM 37.4636 -110.7467 252° West 442 509 34,000  Level Denver Center
11:59AM 37.4267 -110.8928 252° West 440 506 34,000 -480 Level Denver Center
12:00PM 37.3831 -111.0675 253° West 439 505 33,100 -1,020 Descending Denver Center
12:01PM 37.3467 -111.2111 252° West 431 496 32,000 -540 Descending Denver Center
12:02PM 37.3108 -111.3531 252° West 427 491 32,000  Level Denver Center
12:03PM 37.2658 -111.5281 252° West 438 504 32,000  Level Denver Center
12:04PM 37.2292 -111.6728 252° West 435 501 32,000  Level Denver Center
12:05PM 37.1919 -111.8181 252° West 436 502 32,000  Level Denver Center
12:06PM 37.1594 -111.9347 251° West 437 503 32,000  Level Los Angeles Center
12:07PM 37.1236 -112.0797 253° West 436 502 32,000  Level Los Angeles Center
12:08PM 37.0842 -112.2250 251° West 438 504 32,000  Level Los Angeles Center
12:09PM 37.0381 -112.3986 252° West 438 504 32,000  Level Los Angeles Center
12:10PM 36.9992 -112.5433 251° West 437 503 32,000  Level Los Angeles Center
12:11PM 36.9608 -112.6856 251° West 432 497 32,000  Level Los Angeles Center
12:13PM 36.9222 -112.8292 251° West 433 498 32,000  Level Los Angeles Center
12:14PM 36.8758 -113.0011 251° West 434 499 32,000  Level Los Angeles Center
12:15PM 36.8361 -113.1442 251° West 435 501 32,000 -120 Level Los Angeles Center
12:16PM 36.7897 -113.3161 251° West 436 502 31,800 -1,500 Descending Los Angeles Center
12:17PM 36.7506 -113.4597 251° West 436 502 29,000 -2,760 Descending Los Angeles Center
12:18PM 36.7108 -113.6033 251° West 438 504 26,100 -2,340 Descending Los Angeles Center
12:19PM 36.6778 -113.7164 250° West 436 502 24,200 -2,280 Descending Los Angeles Center
12:20PM 36.6328 -113.8803 251° West 419 482 21,400 -2,460 Descending Los Angeles Center
12:21PM 36.5956 -114.0125 251° West 407 468 19,100 -2,400 Descending Los Angeles Center
12:21PM 36.5675 -114.1042 249° West 399 459 17,600 -2,520 Descending Los Angeles Center
12:22PM 36.5428 -114.1600 241° Southwest 391 450 16,500 -2,100 Descending Los Angeles Center
12:23PM 36.4936 -114.2644 240° Southwest 383 441 14,500 -1,980 Descending Los Angeles Center
12:24PM 36.4417 -114.3761 240° Southwest 375 432 12,500 -1,320 Descending Los Angeles Center
12:25PM 36.3933 -114.4775 239° Southwest 333 383 12,000 -780 Descending Los Angeles Center
12:26PM 36.3053 -114.5439 211° Southwest 311 358 10,900 -1,200 Descending Los Angeles Center
12:27PM 36.2336 -114.6003 212° Southwest 305 351 9,500 -1,320 Descending Los Angeles Center
12:28PM 36.1519 -114.6661 213° Southwest 297 342 8,000 -780 Descending Los Angeles Center
12:29PM 36.0983 -114.7081 212° Southwest 292 336 8,000 -600 Level Los Angeles Center
12:30PM 36.0750 -114.8172 255° West 294 338 6,900 -1,080 Descending Los Angeles Center
12:31PM 36.0725 -114.9139 268° West 271 312 5,600 -1,320 Descending Los Angeles Center
12:32PM 36.0742 -115.0011 271° West 221 254 4,200 -1,260 Descending Los Angeles Center
12:33PM 36.0722 -115.0417 267° West 184 212 3,400 -1,140 Descending Los Angeles Center
12:34PM 36.0733 -115.0617 274° West 203 234 3,000 -960 Descending Los Angeles Center
12:34PM 36.0722 -115.1108 268° West 160 184 2,300 -900 Descending Los Angeles Center
12:37PM 36.0667 -115.1500 219° Southwest  Level FlightAware Approximate